createdAt,value
2018-04-19T00:04:56.525Z,1024.31
2018-04-19T00:05:56.534Z,1024.32
2018-04-19T00:07:50.023Z,1024.28
2018-04-19T00:08:49.485Z,1024.28
2018-04-19T00:10:42.461Z,1024.29
2018-04-19T00:11:42.450Z,1024.29
2018-04-19T00:13:35.431Z,1024.31
2018-04-19T00:14:35.401Z,1024.29
2018-04-19T00:16:28.386Z,1024.27
2018-04-19T00:17:28.367Z,1024.32
2018-04-19T00:19:21.318Z,1024.30
2018-04-19T00:20:21.315Z,1024.30
2018-04-19T00:22:14.813Z,1024.33
2018-04-19T00:23:14.790Z,1024.32
2018-04-19T00:25:07.739Z,1024.27
2018-04-19T00:26:07.747Z,1024.26
2018-04-19T00:28:00.727Z,1024.24
2018-04-19T00:29:00.699Z,1024.26
2018-04-19T00:30:53.715Z,1024.22
2018-04-19T00:31:53.659Z,1024.21
2018-04-19T00:33:46.616Z,1024.17
2018-04-19T00:34:46.612Z,1024.17
2018-04-19T00:36:39.608Z,1024.21
2018-04-19T00:37:39.573Z,1024.15
2018-04-19T00:39:32.533Z,1024.12
2018-04-19T00:40:32.527Z,1024.10
2018-04-19T00:42:25.545Z,1024.08
2018-04-19T00:43:25.487Z,1024.09
2018-04-19T00:45:18.437Z,1024.03
2018-04-19T00:46:18.448Z,1024.04
2018-04-19T00:48:11.455Z,1024.03
2018-04-19T00:49:11.401Z,1024.04
2018-04-19T00:51:04.385Z,1024.02
2018-04-19T00:52:04.357Z,1024.00
2018-04-19T00:53:57.324Z,1023.99
2018-04-19T00:54:57.320Z,1024.01
2018-04-19T00:56:50.304Z,1023.97
2018-04-19T00:57:50.274Z,1023.94
2018-04-19T00:59:43.233Z,1023.95
2018-04-19T01:00:43.238Z,1023.93
2018-04-19T01:02:36.221Z,1023.91
2018-04-19T01:03:36.186Z,1023.90
2018-04-19T01:05:29.144Z,1023.89
2018-04-19T01:06:29.148Z,1023.89
2018-04-19T01:08:22.155Z,1023.86
2018-04-19T01:09:22.103Z,1023.85
2018-04-19T01:11:15.091Z,1023.79
2018-04-19T01:12:15.057Z,1023.77
2018-04-19T01:14:08.839Z,1023.76
2018-04-19T01:15:08.835Z,1023.80
2018-04-19T01:17:01.841Z,1023.75
2018-04-19T01:18:01.791Z,1023.77
2018-04-19T01:19:01.801Z,1023.76
2018-04-19T01:20:01.803Z,1023.77
2018-04-19T01:21:01.811Z,1023.74
2018-04-19T01:22:01.814Z,1023.74
2018-04-19T01:23:01.818Z,1023.75
2018-04-19T01:24:01.817Z,1023.69
2018-04-19T01:25:01.835Z,1023.73
2018-04-19T01:26:01.834Z,1023.72
2018-04-19T01:27:01.839Z,1023.71
2018-04-19T01:28:01.837Z,1023.70
2018-04-19T01:29:01.843Z,1023.72
2018-04-19T01:30:01.848Z,1023.72
2018-04-19T01:31:01.855Z,1023.68
2018-04-19T01:32:01.870Z,1023.71
2018-04-19T01:33:01.866Z,1023.71
2018-04-19T01:34:01.865Z,1023.66
2018-04-19T01:35:01.871Z,1023.67
2018-04-19T01:36:01.877Z,1023.70
2018-04-19T01:37:01.889Z,1023.69
2018-04-19T01:38:01.902Z,1023.67
2018-04-19T01:39:01.891Z,1023.69
2018-04-19T01:40:01.895Z,1023.69
2018-04-19T01:41:01.907Z,1023.68
2018-04-19T01:42:01.905Z,1023.68
2018-04-19T01:43:01.906Z,1023.69
2018-04-19T01:44:01.919Z,1023.65
2018-04-19T01:45:01.919Z,1023.63
2018-04-19T01:46:01.923Z,1023.68
2018-04-19T01:47:01.927Z,1023.64
2018-04-19T01:48:01.997Z,1023.66
2018-04-19T01:49:01.941Z,1023.63
2018-04-19T01:50:01.945Z,1023.62
2018-04-19T01:51:01.954Z,1023.63
2018-04-19T01:52:01.954Z,1023.62
2018-04-19T01:53:01.949Z,1023.64
2018-04-19T01:54:01.956Z,1023.63
2018-04-19T01:55:01.966Z,1023.61
2018-04-19T01:56:01.967Z,1023.62
2018-04-19T01:57:01.976Z,1023.63
2018-04-19T01:58:01.978Z,1023.57
2018-04-19T01:59:01.984Z,1023.59
2018-04-19T02:00:01.980Z,1023.57
2018-04-19T02:01:01.995Z,1023.57
2018-04-19T02:02:01.990Z,1023.60
2018-04-19T02:03:02.001Z,1023.57
2018-04-19T02:04:02.003Z,1023.59
2018-04-19T02:05:02.004Z,1023.59
2018-04-19T02:06:02.004Z,1023.53
2018-04-19T02:07:02.009Z,1023.52
2018-04-19T02:08:02.014Z,1023.55
2018-04-19T02:09:02.031Z,1023.56
2018-04-19T02:10:02.040Z,1023.57
2018-04-19T02:11:02.031Z,1023.54
2018-04-19T02:12:02.036Z,1023.52
2018-04-19T02:13:02.040Z,1023.54
2018-04-19T02:14:02.052Z,1023.54
2018-04-19T02:15:02.055Z,1023.50
2018-04-19T02:16:02.052Z,1023.47
2018-04-19T02:17:02.057Z,1023.46
2018-04-19T02:18:02.061Z,1023.48
2018-04-19T02:19:02.078Z,1023.48
2018-04-19T02:20:02.082Z,1023.45
2018-04-19T02:21:02.082Z,1023.42
2018-04-19T02:22:02.107Z,1023.45
2018-04-19T02:23:02.083Z,1023.40
2018-04-19T02:24:02.100Z,1023.42
2018-04-19T02:25:02.089Z,1023.42
2018-04-19T02:26:02.101Z,1023.40
2018-04-19T02:27:02.101Z,1023.43
2018-04-19T02:28:02.113Z,1023.40
2018-04-19T02:29:02.119Z,1023.39
2018-04-19T02:30:02.121Z,1023.41
2018-04-19T02:31:02.136Z,1023.38
2018-04-19T02:32:02.121Z,1023.38
2018-04-19T02:33:02.132Z,1023.37
2018-04-19T02:34:02.129Z,1023.37
2018-04-19T02:35:02.142Z,1023.33
2018-04-19T02:36:02.149Z,1023.32
2018-04-19T02:37:02.142Z,1023.32
2018-04-19T02:38:02.148Z,1023.30
2018-04-19T02:39:02.156Z,1023.30
2018-04-19T02:40:02.157Z,1023.29
2018-04-19T02:41:02.164Z,1023.30
2018-04-19T02:42:02.166Z,1023.29
2018-04-19T02:43:02.173Z,1023.26
2018-04-19T02:44:02.170Z,1023.25
2018-04-19T02:45:02.181Z,1023.20
2018-04-19T02:46:02.180Z,1023.23
2018-04-19T02:47:02.191Z,1023.21
2018-04-19T02:48:02.189Z,1023.22
2018-04-19T02:49:02.197Z,1023.20
2018-04-19T02:50:02.200Z,1023.18
2018-04-19T02:51:02.203Z,1023.21
2018-04-19T02:52:02.209Z,1023.17
2018-04-19T02:53:02.223Z,1023.15
2018-04-19T02:54:02.218Z,1023.13
2018-04-19T02:55:02.223Z,1023.11
2018-04-19T02:56:02.230Z,1023.10
2018-04-19T02:57:02.266Z,1023.11
2018-04-19T02:58:02.233Z,1023.08
2018-04-19T02:59:02.242Z,1023.09
2018-04-19T03:00:02.259Z,1023.11
2018-04-19T03:01:02.244Z,1023.05
2018-04-19T03:02:02.250Z,1023.09
2018-04-19T03:03:02.266Z,1023.09
2018-04-19T03:04:02.272Z,1023.12
2018-04-19T03:05:02.296Z,1023.07
2018-04-19T03:06:02.272Z,1023.08
2018-04-19T03:07:02.283Z,1023.07
2018-04-19T03:08:02.284Z,1023.09
2018-04-19T03:09:02.273Z,1023.06
2018-04-19T03:10:02.277Z,1023.05
2018-04-19T03:11:02.288Z,1023.05
2018-04-19T03:12:02.287Z,1023.05
2018-04-19T03:13:02.298Z,1023.03
2018-04-19T03:14:02.297Z,1023.02
2018-04-19T03:15:02.305Z,1023.02
2018-04-19T03:16:02.302Z,1023.00
2018-04-19T03:17:02.317Z,1023.01
2018-04-19T03:18:02.314Z,1022.98
2018-04-19T03:19:02.318Z,1022.97
2018-04-19T03:20:02.321Z,1023.01
2018-04-19T03:21:02.330Z,1022.96
2018-04-19T03:22:02.327Z,1023.01
2018-04-19T03:23:02.339Z,1022.96
2018-04-19T03:24:02.340Z,1022.94
2018-04-19T03:25:02.356Z,1022.96
2018-04-19T03:26:02.347Z,1023.00
2018-04-19T03:27:02.352Z,1022.97
2018-04-19T03:28:02.365Z,1022.97
2018-04-19T03:29:02.421Z,1022.98
2018-04-19T03:30:02.361Z,1023.00
2018-04-19T03:31:02.372Z,1022.98
2018-04-19T03:32:02.379Z,1022.98
2018-04-19T03:33:02.378Z,1022.93
2018-04-19T03:34:02.382Z,1022.95
2018-04-19T03:35:02.401Z,1022.93
2018-04-19T03:36:02.402Z,1022.94
2018-04-19T03:37:02.407Z,1022.93
2018-04-19T03:38:02.408Z,1022.93
2018-04-19T03:39:02.428Z,1022.92
2018-04-19T03:40:02.422Z,1022.95
2018-04-19T03:41:02.425Z,1022.91
2018-04-19T03:42:02.430Z,1022.90
2018-04-19T03:43:02.444Z,1022.90
2018-04-19T03:44:02.414Z,1022.90
2018-04-19T03:45:02.465Z,1022.86
2018-04-19T03:46:02.462Z,1022.88
2018-04-19T03:47:02.474Z,1022.89
2018-04-19T03:48:02.449Z,1022.90
2018-04-19T03:49:02.447Z,1022.93
2018-04-19T03:50:02.442Z,1022.95
2018-04-19T03:51:02.446Z,1022.92
2018-04-19T03:52:02.502Z,1022.96
2018-04-19T03:53:02.457Z,1022.94
2018-04-19T03:54:02.455Z,1022.96
2018-04-19T03:55:02.465Z,1022.94
2018-04-19T03:56:02.462Z,1022.92
2018-04-19T03:57:02.474Z,1022.91
2018-04-19T03:58:02.477Z,1022.90
2018-04-19T03:59:02.486Z,1022.90
2018-04-19T04:00:02.491Z,1022.89
2018-04-19T04:01:02.531Z,1022.87
2018-04-19T04:02:02.500Z,1022.84
2018-04-19T04:03:02.505Z,1022.87
2018-04-19T04:04:02.509Z,1022.92
2018-04-19T04:05:02.523Z,1022.90
2018-04-19T04:06:02.516Z,1022.88
2018-04-19T04:07:02.520Z,1022.86
2018-04-19T04:08:02.520Z,1022.86
2018-04-19T04:09:02.541Z,1022.88
2018-04-19T04:10:02.542Z,1022.88
2018-04-19T04:11:02.545Z,1022.88
2018-04-19T04:12:02.574Z,1022.89
2018-04-19T04:13:02.552Z,1022.90
2018-04-19T04:14:02.566Z,1022.87
2018-04-19T04:15:02.572Z,1022.91
2018-04-19T04:16:02.540Z,1022.89
2018-04-19T04:17:02.572Z,1022.89
2018-04-19T04:18:02.559Z,1022.93
2018-04-19T04:19:02.585Z,1022.93
2018-04-19T04:20:02.558Z,1022.92
2018-04-19T04:21:02.595Z,1022.92
2018-04-19T04:22:02.569Z,1022.93
2018-04-19T04:23:02.566Z,1022.94
2018-04-19T04:24:02.578Z,1022.99
2018-04-19T04:25:02.579Z,1022.98
2018-04-19T04:26:02.588Z,1022.98
2018-04-19T04:27:02.586Z,1023.00
2018-04-19T04:28:02.588Z,1022.97
2018-04-19T04:29:02.603Z,1022.99
2018-04-19T04:30:02.617Z,1022.95
2018-04-19T04:31:02.614Z,1023.03
2018-04-19T04:32:02.609Z,1023.00
2018-04-19T04:33:02.609Z,1023.03
2018-04-19T04:34:02.615Z,1023.03
2018-04-19T04:35:02.616Z,1023.05
2018-04-19T04:36:02.623Z,1023.03
2018-04-19T04:37:04.736Z,1023.06
2018-04-19T04:38:05.988Z,1023.05
2018-04-19T04:39:02.634Z,1023.02
2018-04-19T04:40:02.640Z,1023.03
2018-04-19T04:41:02.636Z,1023.05
2018-04-19T04:42:02.640Z,1023.04
2018-04-19T04:43:02.650Z,1023.04
2018-04-19T04:44:02.731Z,1023.07
2018-04-19T04:45:02.683Z,1023.04
2018-04-19T04:46:02.656Z,1023.02
2018-04-19T04:47:02.668Z,1023.00
2018-04-19T04:48:02.658Z,1022.98
2018-04-19T04:49:02.673Z,1022.99
2018-04-19T04:50:02.673Z,1023.02
2018-04-19T04:51:02.674Z,1023.02
2018-04-19T04:52:02.681Z,1023.06
2018-04-19T04:53:02.679Z,1023.08
2018-04-19T04:54:02.711Z,1023.05
2018-04-19T04:55:02.690Z,1023.05
2018-04-19T04:56:02.712Z,1022.99
2018-04-19T04:57:04.335Z,1023.03
2018-04-19T04:58:02.696Z,1023.07
2018-04-19T04:59:02.710Z,1023.00
2018-04-19T05:00:02.706Z,1023.05
2018-04-19T05:01:02.721Z,1023.00
2018-04-19T05:02:03.332Z,1023.04
2018-04-19T05:03:04.893Z,1023.02
2018-04-19T05:04:07.016Z,1022.99
2018-04-19T05:05:03.615Z,1023.01
2018-04-19T05:06:02.736Z,1023.03
2018-04-19T05:07:06.336Z,1023.03
2018-04-19T05:08:06.020Z,1023.03
2018-04-19T05:09:02.742Z,1023.04
2018-04-19T05:10:02.754Z,1023.07
2018-04-19T05:11:02.778Z,1023.06
2018-04-19T05:12:02.752Z,1023.08
2018-04-19T05:13:02.767Z,1023.07
2018-04-19T05:14:02.767Z,1023.06
2018-04-19T05:15:57.209Z,1023.09
2018-04-19T05:16:57.170Z,1023.09
2018-04-19T05:18:50.131Z,1023.07
2018-04-19T05:19:50.130Z,1023.10
2018-04-19T05:21:46.085Z,1023.07
2018-04-19T05:22:46.052Z,1023.05
2018-04-19T05:23:46.057Z,1023.07
2018-04-19T05:24:46.075Z,1023.06
2018-04-19T05:25:46.059Z,1023.10
2018-04-19T05:26:46.070Z,1023.11
2018-04-19T05:27:46.080Z,1023.12
2018-04-19T05:28:46.084Z,1023.14
2018-04-19T05:29:46.084Z,1023.16
2018-04-19T05:30:46.080Z,1023.19
2018-04-19T05:31:47.118Z,1023.17
2018-04-19T05:32:46.101Z,1023.20
2018-04-19T05:33:46.122Z,1023.16
2018-04-19T05:34:46.115Z,1023.20
2018-04-19T05:35:46.101Z,1023.18
2018-04-19T05:36:46.111Z,1023.22
2018-04-19T05:37:46.107Z,1023.20
2018-04-19T05:38:46.118Z,1023.26
2018-04-19T05:39:46.117Z,1023.25
2018-04-19T05:40:46.119Z,1023.27
2018-04-19T05:41:46.135Z,1023.25
2018-04-19T05:42:46.132Z,1023.25
2018-04-19T05:43:46.135Z,1023.25
2018-04-19T05:44:46.279Z,1023.27
2018-04-19T05:45:46.148Z,1023.28
2018-04-19T05:46:46.145Z,1023.28
2018-04-19T05:47:46.154Z,1023.28
2018-04-19T05:48:46.158Z,1023.26
2018-04-19T05:49:46.155Z,1023.31
2018-04-19T05:50:46.174Z,1023.29
2018-04-19T05:51:46.200Z,1023.31
2018-04-19T05:52:46.228Z,1023.34
2018-04-19T05:53:46.180Z,1023.31
2018-04-19T05:54:46.194Z,1023.33
2018-04-19T05:55:46.192Z,1023.33
2018-04-19T05:56:46.189Z,1023.31
2018-04-19T05:57:46.194Z,1023.33
2018-04-19T05:58:46.195Z,1023.29
2018-04-19T05:59:46.207Z,1023.34
2018-04-19T06:00:46.213Z,1023.31
2018-04-19T06:01:47.100Z,1023.28
2018-04-19T06:02:46.221Z,1023.38
2018-04-19T06:03:46.221Z,1023.75
2018-04-19T06:04:46.226Z,1024.03
2018-04-19T06:05:46.230Z,1024.11
2018-04-19T06:06:46.238Z,1024.16
2018-04-19T06:07:46.244Z,1024.15
2018-04-19T06:08:46.253Z,1024.18
2018-04-19T06:09:46.260Z,1024.21
2018-04-19T06:10:46.263Z,1024.24
2018-04-19T06:11:46.262Z,1024.23
2018-04-19T06:12:46.272Z,1024.30
2018-04-19T06:13:46.281Z,1024.25
2018-04-19T06:14:46.291Z,1024.24
2018-04-19T06:15:46.295Z,1024.24
2018-04-19T06:16:46.304Z,1024.28
2018-04-19T06:17:46.354Z,1024.34
2018-04-19T06:18:46.331Z,1024.40
2018-04-19T06:19:47.269Z,1024.33
2018-04-19T06:20:46.346Z,1024.40
2018-04-19T06:21:46.378Z,1024.33
2018-04-19T06:22:46.376Z,1024.31
2018-04-19T06:23:46.382Z,1024.42
2018-04-19T06:24:46.390Z,1024.42
2018-04-19T06:25:46.414Z,1024.46
2018-04-19T06:26:46.418Z,1024.47
2018-04-19T06:27:46.436Z,1024.51
2018-04-19T06:28:46.445Z,1024.56
2018-04-19T06:29:46.452Z,1024.55
2018-04-19T06:30:46.479Z,1024.55
2018-04-19T06:31:46.479Z,1024.62
2018-04-19T06:32:46.492Z,1024.59
2018-04-19T06:33:47.410Z,1024.61
2018-04-19T06:34:46.874Z,1024.61
2018-04-19T06:36:39.562Z,1024.70
2018-04-19T06:37:39.479Z,1024.68
2018-04-19T06:39:32.967Z,1024.78
2018-04-19T06:40:32.455Z,1024.75
2018-04-19T06:42:25.405Z,1024.87
2018-04-19T06:43:25.399Z,1024.90
2018-04-19T06:45:18.356Z,1024.93
2018-04-19T06:46:18.363Z,1024.92
2018-04-19T06:48:11.325Z,1024.99
2018-04-19T06:49:11.314Z,1024.98
2018-04-19T06:51:04.286Z,1024.97
2018-04-19T06:52:04.270Z,1025.02
2018-04-19T06:53:57.338Z,1025.11
2018-04-19T06:54:57.333Z,1025.14
2018-04-19T06:56:50.303Z,1025.22
2018-04-19T06:57:50.308Z,1025.31
2018-04-19T06:59:43.228Z,1025.47
2018-04-19T07:00:43.238Z,1025.52
2018-04-19T07:02:36.217Z,1025.64
2018-04-19T07:03:36.204Z,1025.70
2018-04-19T07:05:29.141Z,1025.73
2018-04-19T07:06:29.157Z,1025.83
2018-04-19T07:08:22.141Z,1025.88
2018-04-19T07:09:22.138Z,1025.91
2018-04-19T07:11:15.089Z,1025.99
2018-04-19T07:12:15.075Z,1025.90
2018-04-19T07:14:08.012Z,1025.88
2018-04-19T07:15:08.036Z,1025.84
2018-04-19T07:17:01.076Z,1025.82
2018-04-19T07:18:00.994Z,1025.83
2018-04-19T07:19:53.926Z,1025.72
2018-04-19T07:20:54.055Z,1025.66
2018-04-19T07:22:46.911Z,1025.65
2018-04-19T07:23:46.899Z,1025.61
2018-04-19T07:25:39.837Z,1025.60
2018-04-19T07:26:39.861Z,1025.56
2018-04-19T07:28:32.824Z,1025.56
2018-04-19T07:29:32.821Z,1025.56
2018-04-19T07:30:32.836Z,1025.58
2018-04-19T07:31:32.856Z,1025.53
2018-04-19T07:32:32.883Z,1025.53
2018-04-19T07:33:32.902Z,1025.49
2018-04-19T07:34:32.930Z,1025.51
2018-04-19T07:35:32.950Z,1025.45
2018-04-19T07:36:32.969Z,1025.46
2018-04-19T07:37:32.992Z,1025.40
2018-04-19T07:38:33.022Z,1025.40
2018-04-19T07:39:33.043Z,1025.46
2018-04-19T07:40:33.058Z,1025.42
2018-04-19T07:41:33.086Z,1025.42
2018-04-19T07:42:33.108Z,1025.43
2018-04-19T07:43:33.128Z,1025.41
2018-04-19T07:44:33.149Z,1025.39
2018-04-19T07:45:33.176Z,1025.42
2018-04-19T07:46:33.202Z,1025.39
2018-04-19T07:47:33.225Z,1025.41
2018-04-19T07:48:33.242Z,1025.38
2018-04-19T07:49:33.266Z,1025.33
2018-04-19T07:50:33.289Z,1025.34
2018-04-19T07:51:33.356Z,1025.38
2018-04-19T07:52:33.332Z,1025.28
2018-04-19T07:53:33.354Z,1025.32
2018-04-19T07:54:33.384Z,1025.32
2018-04-19T07:55:33.404Z,1025.32
2018-04-19T07:56:33.516Z,1025.28
2018-04-19T07:57:33.512Z,1025.25
2018-04-19T07:58:33.470Z,1025.21
2018-04-19T07:59:33.505Z,1025.20
2018-04-19T08:00:33.534Z,1025.16
2018-04-19T08:01:33.533Z,1025.18
2018-04-19T08:02:33.559Z,1025.15
2018-04-19T08:03:33.583Z,1025.18
2018-04-19T08:04:33.603Z,1025.13
2018-04-19T08:05:33.624Z,1025.13
2018-04-19T08:06:33.671Z,1025.12
2018-04-19T08:07:33.674Z,1025.10
2018-04-19T08:08:33.703Z,1025.06
2018-04-19T08:09:33.718Z,1025.02
2018-04-19T08:10:33.744Z,1025.00
2018-04-19T08:11:33.773Z,1024.95
2018-04-19T08:12:33.823Z,1024.96
2018-04-19T08:13:33.817Z,1024.93
2018-04-19T08:14:33.835Z,1024.91
2018-04-19T08:15:33.865Z,1024.86
2018-04-19T08:16:33.887Z,1024.85
2018-04-19T08:17:33.914Z,1024.84
2018-04-19T08:18:33.937Z,1024.83
2018-04-19T08:19:33.966Z,1024.80
2018-04-19T08:20:34.005Z,1024.73
2018-04-19T08:21:34.000Z,1024.72
2018-04-19T08:22:34.027Z,1024.71
2018-04-19T08:23:34.050Z,1024.63
2018-04-19T08:24:34.085Z,1024.57
2018-04-19T08:25:34.099Z,1024.53
2018-04-19T08:26:34.130Z,1024.49
2018-04-19T08:27:34.142Z,1024.41
2018-04-19T08:28:34.175Z,1024.43
2018-04-19T08:29:34.199Z,1024.43
2018-04-19T08:30:34.228Z,1024.43
2018-04-19T08:31:34.252Z,1024.44
2018-04-19T08:32:34.264Z,1024.40
2018-04-19T08:33:34.290Z,1024.40
2018-04-19T08:34:34.322Z,1024.44
2018-04-19T08:35:34.337Z,1024.46
2018-04-19T08:36:34.373Z,1024.50
2018-04-19T08:37:34.411Z,1024.51
2018-04-19T08:38:34.420Z,1024.57
2018-04-19T08:39:34.437Z,1024.56
2018-04-19T08:40:34.468Z,1024.60
2018-04-19T08:41:34.486Z,1024.64
2018-04-19T08:42:34.518Z,1024.67
2018-04-19T08:43:34.537Z,1024.64
2018-04-19T08:44:34.618Z,1024.66
2018-04-19T08:45:34.719Z,1024.70
2018-04-19T08:46:34.621Z,1024.72
2018-04-19T08:47:34.644Z,1024.71
2018-04-19T08:48:34.660Z,1024.73
2018-04-19T08:49:34.682Z,1024.71
2018-04-19T08:50:34.710Z,1024.68
2018-04-19T08:51:34.736Z,1024.68
2018-04-19T08:52:34.756Z,1024.67
2018-04-19T08:53:34.781Z,1024.63
2018-04-19T08:54:34.809Z,1024.63
2018-04-19T08:55:34.839Z,1024.62
2018-04-19T08:56:34.854Z,1024.63
2018-04-19T08:57:34.875Z,1024.64
2018-04-19T08:58:34.909Z,1024.59
2018-04-19T08:59:34.928Z,1024.57
2018-04-19T09:00:34.963Z,1024.59
2018-04-19T09:01:34.985Z,1024.50
2018-04-19T09:02:34.998Z,1024.49
2018-04-19T09:03:35.025Z,1024.49
2018-04-19T09:04:35.049Z,1024.48
2018-04-19T09:05:35.094Z,1024.45
2018-04-19T09:06:35.106Z,1024.45
2018-04-19T09:07:35.130Z,1024.38
2018-04-19T09:08:35.148Z,1024.35
2018-04-19T09:09:35.176Z,1024.43
2018-04-19T09:10:35.198Z,1024.40
2018-04-19T09:11:35.224Z,1024.35
2018-04-19T09:12:35.251Z,1024.36
2018-04-19T09:13:35.277Z,1024.39
2018-04-19T09:14:35.296Z,1024.43
2018-04-19T09:15:35.324Z,1024.35
2018-04-19T09:16:35.344Z,1024.32
2018-04-19T09:17:35.367Z,1024.33
2018-04-19T09:18:35.395Z,1024.37
2018-04-19T09:19:35.410Z,1024.37
2018-04-19T09:20:35.439Z,1024.36
2018-04-19T09:21:35.466Z,1024.33
2018-04-19T09:22:35.481Z,1024.34
2018-04-19T09:23:35.517Z,1024.33
2018-04-19T09:24:35.535Z,1024.36
2018-04-19T09:25:35.554Z,1024.31
2018-04-19T09:26:35.579Z,1024.34
2018-04-19T09:27:35.611Z,1024.39
2018-04-19T09:28:35.626Z,1024.38
2018-04-19T09:29:35.649Z,1024.36
2018-04-19T09:30:35.671Z,1024.32
2018-04-19T09:31:35.695Z,1024.34
2018-04-19T09:32:35.717Z,1024.36
2018-04-19T09:33:35.740Z,1024.32
2018-04-19T09:34:35.766Z,1024.38
2018-04-19T09:35:35.787Z,1024.41
2018-04-19T09:36:35.815Z,1024.35
2018-04-19T09:37:35.830Z,1024.33
2018-04-19T09:38:35.860Z,1024.31
2018-04-19T09:39:35.926Z,1024.30
2018-04-19T09:40:35.904Z,1024.34
2018-04-19T09:41:35.921Z,1024.26
2018-04-19T09:42:35.948Z,1024.29
2018-04-19T09:43:35.975Z,1024.28
2018-04-19T09:44:35.993Z,1024.05
2018-04-19T09:45:36.019Z,1023.99
2018-04-19T09:46:36.086Z,1023.98
2018-04-19T09:47:36.059Z,1023.93
2018-04-19T09:48:36.087Z,1023.88
2018-04-19T09:49:36.117Z,1023.80
2018-04-19T09:50:36.133Z,1023.66
2018-04-19T09:51:36.150Z,1023.56
2018-04-19T09:52:36.180Z,1023.54
2018-04-19T09:53:36.205Z,1023.52
2018-04-19T09:54:36.222Z,1023.50
2018-04-19T09:55:36.270Z,1023.48
2018-04-19T09:56:36.268Z,1023.50
2018-04-19T09:57:36.290Z,1023.46
2018-04-19T09:58:36.338Z,1023.47
2018-04-19T09:59:36.340Z,1023.41
2018-04-19T10:00:36.356Z,1023.43
2018-04-19T10:01:36.385Z,1023.47
2018-04-19T10:02:36.415Z,1023.34
2018-04-19T10:03:36.438Z,1023.32
2018-04-19T10:04:36.457Z,1023.34
2018-04-19T10:05:36.480Z,1023.30
2018-04-19T10:06:36.498Z,1023.30
2018-04-19T10:07:36.526Z,1023.34
2018-04-19T10:08:36.547Z,1023.32
2018-04-19T10:09:36.564Z,1023.31
2018-04-19T10:10:36.593Z,1023.31
2018-04-19T10:11:36.608Z,1023.32
2018-04-19T10:12:36.640Z,1023.28
2018-04-19T10:13:36.664Z,1023.30
2018-04-19T10:14:36.686Z,1023.24
2018-04-19T10:15:36.703Z,1023.28
2018-04-19T10:16:36.745Z,1023.26
2018-04-19T10:17:36.748Z,1023.22
2018-04-19T10:18:36.773Z,1023.22
2018-04-19T10:19:36.798Z,1023.24
2018-04-19T10:20:36.819Z,1023.20
2018-04-19T10:21:36.849Z,1023.24
2018-04-19T10:22:36.868Z,1023.17
2018-04-19T10:23:36.898Z,1023.15
2018-04-19T10:24:36.914Z,1023.21
2018-04-19T10:25:36.929Z,1023.19
2018-04-19T10:26:36.955Z,1023.18
2018-04-19T10:27:36.994Z,1023.19
2018-04-19T10:28:37.017Z,1023.26
2018-04-19T10:29:37.027Z,1023.30
2018-04-19T10:30:37.059Z,1023.35
2018-04-19T10:31:37.064Z,1023.46
2018-04-19T10:32:37.090Z,1023.42
2018-04-19T10:33:37.156Z,1023.28
2018-04-19T10:34:37.150Z,1023.16
2018-04-19T10:35:37.171Z,1023.14
2018-04-19T10:36:37.182Z,1023.14
2018-04-19T10:37:37.210Z,1023.12
2018-04-19T10:38:37.219Z,1023.09
2018-04-19T10:39:37.239Z,1023.04
2018-04-19T10:40:37.305Z,1023.02
2018-04-19T10:41:37.325Z,1022.96
2018-04-19T10:42:37.430Z,1022.95
2018-04-19T10:43:37.340Z,1022.95
2018-04-19T10:44:37.363Z,1022.87
2018-04-19T10:45:37.376Z,1022.91
2018-04-19T10:46:37.397Z,1022.86
2018-04-19T10:47:37.450Z,1022.87
2018-04-19T10:48:37.458Z,1022.86
2018-04-19T10:49:37.474Z,1022.89
2018-04-19T10:50:37.495Z,1022.88
2018-04-19T10:51:37.517Z,1022.85
2018-04-19T10:52:37.525Z,1022.84
2018-04-19T10:53:37.554Z,1022.81
2018-04-19T10:54:37.606Z,1022.77
2018-04-19T10:55:37.614Z,1022.77
2018-04-19T10:56:37.627Z,1022.79
2018-04-19T10:57:37.648Z,1022.80
2018-04-19T10:58:37.676Z,1022.82
2018-04-19T10:59:37.681Z,1022.79
2018-04-19T11:00:37.705Z,1022.76
2018-04-19T11:01:37.757Z,1022.78
2018-04-19T11:02:37.761Z,1022.75
2018-04-19T11:03:37.773Z,1022.74
2018-04-19T11:04:37.796Z,1022.70
2018-04-19T11:05:37.872Z,1022.70
2018-04-19T11:06:37.829Z,1022.69
2018-04-19T11:07:37.851Z,1022.67
2018-04-19T11:08:37.940Z,1022.63
2018-04-19T11:09:37.913Z,1022.65
2018-04-19T11:10:37.922Z,1022.62
2018-04-19T11:11:38.099Z,1022.68
2018-04-19T11:12:37.963Z,1022.59
2018-04-19T11:13:37.982Z,1022.61
2018-04-19T11:14:38.000Z,1022.61
2018-04-19T11:15:38.061Z,1022.59
2018-04-19T11:16:38.060Z,1022.61
2018-04-19T11:17:38.065Z,1022.62
2018-04-19T11:18:38.100Z,1022.59
2018-04-19T11:19:38.116Z,1022.56
2018-04-19T11:20:38.124Z,1022.57
2018-04-19T11:21:38.145Z,1022.56
2018-04-19T11:22:38.203Z,1022.54
2018-04-19T11:23:38.210Z,1022.53
2018-04-19T11:24:38.224Z,1022.50
2018-04-19T11:25:38.244Z,1022.49
2018-04-19T11:26:38.255Z,1022.44
2018-04-19T11:27:38.273Z,1022.52
2018-04-19T11:28:38.296Z,1022.51
2018-04-19T11:29:38.312Z,1022.49
2018-04-19T11:30:38.335Z,1022.47
2018-04-19T11:31:38.365Z,1022.50
2018-04-19T11:32:38.387Z,1022.45
2018-04-19T11:33:38.409Z,1022.52
2018-04-19T11:34:38.430Z,1022.52
2018-04-19T11:35:38.442Z,1022.51
2018-04-19T11:36:38.490Z,1022.53
2018-04-19T11:37:38.467Z,1022.45
2018-04-19T11:38:38.491Z,1022.53
2018-04-19T11:39:38.629Z,1022.40
2018-04-19T11:40:38.530Z,1022.47
2018-04-19T11:41:38.544Z,1022.41
2018-04-19T11:42:38.567Z,1022.40
2018-04-19T11:43:38.585Z,1022.37
2018-04-19T11:44:38.600Z,1022.36
2018-04-19T11:45:38.617Z,1022.34
2018-04-19T11:46:38.631Z,1022.39
2018-04-19T11:47:38.657Z,1022.34
2018-04-19T11:48:38.669Z,1022.34
2018-04-19T11:49:38.692Z,1022.30
2018-04-19T11:50:38.721Z,1022.34
2018-04-19T11:51:38.726Z,1022.28
2018-04-19T11:52:38.734Z,1022.35
2018-04-19T11:53:38.755Z,1022.34
2018-04-19T11:54:38.784Z,1022.32
2018-04-19T11:55:38.794Z,1022.27
2018-04-19T11:56:38.807Z,1022.27
2018-04-19T11:57:38.880Z,1022.19
2018-04-19T11:58:38.841Z,1022.28
2018-04-19T11:59:38.883Z,1022.29
2018-04-19T12:00:38.877Z,1022.25
2018-04-19T12:01:38.916Z,1022.32
2018-04-19T12:02:38.946Z,1022.29
2018-04-19T12:03:38.956Z,1022.24
2018-04-19T12:04:38.946Z,1022.23
2018-04-19T12:05:38.956Z,1022.31
2018-04-19T12:06:38.988Z,1022.22
2018-04-19T12:07:38.997Z,1022.21
2018-04-19T12:08:39.041Z,1022.22
2018-04-19T12:09:39.018Z,1022.15
2018-04-19T12:10:39.044Z,1022.15
2018-04-19T12:11:39.064Z,1022.08
2018-04-19T12:12:39.070Z,1022.07
2018-04-19T12:13:39.279Z,1022.08
2018-04-19T12:14:39.101Z,1022.08
2018-04-19T12:15:39.118Z,1022.02
2018-04-19T12:16:39.138Z,1022.06
2018-04-19T12:17:39.139Z,1022.08
2018-04-19T12:18:39.149Z,1022.11
2018-04-19T12:19:39.175Z,1022.11
2018-04-19T12:20:39.179Z,1022.08
2018-04-19T12:21:39.199Z,1022.07
2018-04-19T12:22:39.215Z,1021.97
2018-04-19T12:23:39.237Z,1021.98
2018-04-19T12:24:39.238Z,1021.97
2018-04-19T12:25:39.348Z,1021.96
2018-04-19T12:26:39.277Z,1021.95
2018-04-19T12:27:39.331Z,1021.99
2018-04-19T12:28:39.298Z,1021.98
2018-04-19T12:29:39.378Z,1022.00
2018-04-19T12:30:39.334Z,1021.99
2018-04-19T12:31:39.344Z,1021.97
2018-04-19T12:32:39.357Z,1021.99
2018-04-19T12:33:39.463Z,1021.99
2018-04-19T12:34:39.380Z,1021.92
2018-04-19T12:35:39.398Z,1021.99
2018-04-19T12:36:39.411Z,1021.92
2018-04-19T12:37:39.510Z,1021.93
2018-04-19T12:38:39.443Z,1022.01
2018-04-19T12:39:39.453Z,1021.98
2018-04-19T12:40:39.468Z,1021.93
2018-04-19T12:41:39.480Z,1021.94
2018-04-19T12:42:39.495Z,1021.94
2018-04-19T12:43:39.508Z,1021.83
2018-04-19T12:44:39.520Z,1021.83
2018-04-19T12:45:39.537Z,1021.86
2018-04-19T12:46:39.546Z,1021.91
2018-04-19T12:47:39.557Z,1021.83
2018-04-19T12:48:39.579Z,1021.88
2018-04-19T12:49:39.584Z,1021.78
2018-04-19T12:50:39.599Z,1021.75
2018-04-19T12:51:39.617Z,1021.79